メインページ
METAR-TAF:

METAR-TAF

空港 :

仁川国際空港, 大韓民国

緯度: 37-28N, 経度: 126-27E, 海抜: 7m

現時点の気象観測

当レポートは15分前の08:30(UTC)に作成
北/北西の風 14kt
気温 -2°C
湿度 54%
気圧 1030 hPa
視程10km以上
高度3000ftの雲はほとんどない

METAR: RKSI 130830Z 33014KT 9999 FEW030 M02/M10 Q1030 NOSIG

時間: 17:45 (08:45 UTC)

予報

当レポートは3時間45分前の05:00(UTC)に作成
予報は13日の 06時(UTC)から 14日の 12時(UTC)まで有効
北/北西の風 15kt、最大25ktの突風を伴う
視程10km以上
高度3000ftの雲はほとんどない
13日の 14時(UTC)から 13日の 15時(UTC)まで徐々に
北/北西の風 10kt

TAF: RKSI 130500Z 1306/1412 33015G25KT 9999 FEW030 TNM07/1321Z TX00/1406Z BECMG 1314/1315 34010KT

4,000以上の空港の気象観測と天気予報(METAR報とTAF報)

利用可能な観測所は地図上に黄色い丸と赤い丸で示す。

丸の上にカーソルを重ねると観測所名を参照できる。

次にクリックすると気象観測と天気予報を参照できる。

マップの切り替え:黒色「×」印の緑ボタンをクリックして拡大、「-」印の緑ボタンをクリックして縮小、緑色の三角印をクリックして隣りの地図に切り替え


METAR-TAF: